Time;durP1;ratioP1;P1;durP2;ratioP2;P2;SDS_P1;SDS_P2;PMS_P1;PMS_P2;Temp;Humidity;BMP_temperature;BMP_pressure;BME280_temperature;BME280_humidity;BME280_pressure;Samples;Min_cycle;Max_cycle;Signal;HPM_P1;HPM_P2
2023/04/10 00:00:16;;;;;;;13.02;9.38;;;11.10;1.00;;;;;;5117078;28;20392;-61
2023/04/10 00:02:43;;;;;;;13.05;9.30;;;11.20;1.00;;;;;;5116700;28;20110;-61
2023/04/10 00:05:09;;;;;;;10.95;9.00;;;11.20;1.00;;;;;;5116963;28;20100;-61
2023/04/10 00:07:35;;;;;;;12.63;9.73;;;11.20;1.00;;;;;;5117096;28;20031;-60
2023/04/10 00:10:01;;;;;;;11.48;9.23;;;11.10;1.00;;;;;;5116588;28;20039;-60
2023/04/10 00:12:27;;;;;;;11.68;9.48;;;11.00;1.00;;;;;;5117228;28;20035;-60
2023/04/10 00:14:52;;;;;;;11.27;8.95;;;11.00;1.00;;;;;;5119532;28;20278;-60
2023/04/10 00:17:18;;;;;;;11.77;9.65;;;10.90;1.00;;;;;;5121058;28;20036;-61
2023/04/10 00:19:44;;;;;;;13.50;10.05;;;10.90;1.00;;;;;;5120898;28;20028;-60
2023/04/10 00:22:10;;;;;;;11.43;9.43;;;11.00;1.00;;;;;;5120156;28;20047;-61
2023/04/10 00:24:35;;;;;;;11.10;9.00;;;11.00;1.00;;;;;;5121038;28;20040;-61
2023/04/10 00:27:01;;;;;;;12.60;9.10;;;11.00;1.00;;;;;;5120800;28;20039;-61
2023/04/10 00:29:27;;;;;;;10.68;8.77;;;11.10;1.00;;;;;;5120756;28;20032;-60
2023/04/10 00:31:53;;;;;;;12.30;9.65;;;11.10;1.00;;;;;;5120049;28;20106;-60
2023/04/10 00:34:19;;;;;;;11.75;8.65;;;11.20;1.00;;;;;;5120953;28;20035;-60
2023/04/10 00:36:48;;;;;;;11.15;8.70;;;11.20;1.00;;;;;;5120656;28;20038;-61
2023/04/10 00:39:14;;;;;;;11.43;9.35;;;11.10;1.00;;;;;;5120503;28;20045;-61
2023/04/10 00:41:40;;;;;;;11.80;8.90;;;11.10;1.00;;;;;;5102634;28;20101;-61
2023/04/10 00:44:06;;;;;;;12.50;9.20;;;11.20;1.00;;;;;;5120322;28;20047;-60
2023/04/10 00:46:33;;;;;;;14.93;9.18;;;11.20;1.00;;;;;;5120393;28;20107;-60
2023/04/10 00:48:59;;;;;;;11.05;8.57;;;11.10;1.00;;;;;;5120330;27;20032;-60
2023/04/10 00:51:25;;;;;;;10.90;8.15;;;11.00;1.00;;;;;;5120328;28;20069;-60
2023/04/10 00:53:53;;;;;;;11.23;7.95;;;10.90;1.00;;;;;;5119505;28;20457;-60
2023/04/10 00:56:19;;;;;;;11.68;8.95;;;11.00;1.00;;;;;;5120140;28;20106;-60
2023/04/10 00:58:46;;;;;;;10.85;8.30;;;11.00;1.00;;;;;;5120302;28;20028;-60
2023/04/10 01:01:12;;;;;;;11.45;9.10;;;11.10;1.00;;;;;;5120338;28;20318;-60
2023/04/10 01:03:41;;;;;;;8.45;7.35;;;11.00;1.00;;;;;;5120203;28;20032;-61
2023/04/10 01:06:31;;;;;;;11.15;8.27;;;11.00;1.00;;;;;;5120075;28;20055;-61
2023/04/10 01:09:13;;;;;;;9.25;7.40;;;11.00;1.00;;;;;;5120145;28;20019;-63
2023/04/10 01:11:39;;;;;;;9.55;7.65;;;11.00;1.00;;;;;;5119281;28;20099;-61
2023/04/10 01:14:14;;;;;;;9.63;7.63;;;10.90;1.00;;;;;;5119839;28;20043;-60
2023/04/10 01:16:52;;;;;;;8.70;7.15;;;10.90;1.00;;;;;;5119906;28;20270;-61
2023/04/10 01:19:26;;;;;;;8.65;7.13;;;10.90;1.00;;;;;;5119084;28;20095;-61
2023/04/10 01:21:54;;;;;;;9.70;7.28;;;10.90;1.00;;;;;;5119034;28;20042;-61
2023/04/10 01:24:24;;;;;;;8.73;7.20;;;10.90;1.00;;;;;;5119583;28;20161;-60
2023/04/10 01:27:02;;;;;;;8.32;7.30;;;11.00;1.00;;;;;;5118968;28;20028;-61
2023/04/10 01:29:31;;;;;;;10.73;7.70;;;10.90;1.00;;;;;;5118873;28;20394;-61
2023/04/10 01:31:59;;;;;;;9.32;6.97;;;10.90;1.00;;;;;;5118885;28;20023;-61
2023/04/10 01:34:30;;;;;;;8.75;7.07;;;10.80;1.00;;;;;;5101678;28;20020;-61
2023/04/10 01:37:02;;;;;;;9.63;6.97;;;10.80;1.00;;;;;;5119572;28;20035;-61
2023/04/10 01:39:29;;;;;;;;;;;10.70;1.00;;;;;;5119829;28;20402;-61
2023/04/10 01:42:02;;;;;;;8.60;6.95;;;10.70;1.00;;;;;;5118287;28;19920;-61
2023/04/10 01:44:44;;;;;;;8.90;7.18;;;10.60;1.00;;;;;;5118496;28;20130;-61
2023/04/10 01:47:15;;;;;;;7.80;6.45;;;10.70;1.00;;;;;;5101572;28;20362;-61
2023/04/10 01:49:45;;;;;;;8.45;7.00;;;10.60;1.00;;;;;;5118474;28;20019;-61
2023/04/10 01:52:13;;;;;;;8.75;6.88;;;10.50;1.00;;;;;;5118250;28;20027;-61
2023/04/10 01:54:42;;;;;;;10.13;6.97;;;10.60;1.00;;;;;;5118410;28;20027;-61
2023/04/10 01:57:13;;;;;;;8.40;6.38;;;10.60;1.00;;;;;;5118199;28;20028;-61
2023/04/10 01:59:50;;;;;;;8.63;6.57;;;10.70;1.00;;;;;;5118472;28;20031;-61
2023/04/10 02:02:16;;;;;;;7.63;6.30;;;10.70;1.00;;;;;;5119013;28;20036;-61
2023/04/10 02:04:41;;;;;;;10.25;6.55;;;10.70;1.00;;;;;;5118134;28;20081;-61
2023/04/10 02:07:19;;;;;;;8.13;6.40;;;10.60;1.00;;;;;;5118826;28;20096;-61
2023/04/10 02:10:07;;;;;;;6.93;6.07;;;10.60;1.00;;;;;;5119420;28;20380;-61
2023/04/10 02:12:41;;;;;;;6.38;5.70;;;10.50;1.00;;;;;;5117940;28;20420;-59
2023/04/10 02:15:09;;;;;;;7.43;6.03;;;10.50;1.00;;;;;;5118058;28;20119;-59
2023/04/10 02:17:37;;;;;;;7.20;5.70;;;10.40;1.00;;;;;;5117945;28;20266;-59
2023/04/10 02:20:05;;;;;;;6.18;5.55;;;10.40;1.00;;;;;;5118512;28;20023;-60
2023/04/10 02:22:31;;;;;;;5.90;5.32;;;10.40;1.00;;;;;;5118560;28;20050;-61
2023/04/10 02:24:58;;;;;;;6.82;5.35;;;10.40;1.00;;;;;;5118551;27;20375;-60
2023/04/10 02:27:31;;;;;;;6.25;5.53;;;10.40;1.00;;;;;;5118419;28;20415;-61
2023/04/10 02:29:58;;;;;;;6.10;5.50;;;10.40;1.00;;;;;;5100963;28;20028;-60
2023/04/10 02:32:24;;;;;;;6.35;5.05;;;10.40;1.00;;;;;;5117485;28;20046;-61
2023/04/10 02:34:50;;;;;;;7.00;5.82;;;10.40;1.00;;;;;;5117524;28;20040;-61
2023/04/10 02:37:16;;;;;;;5.75;5.00;;;10.40;1.00;;;;;;5117321;28;20032;-60
2023/04/10 02:39:42;;;;;;;6.22;5.25;;;10.40;1.00;;;;;;5117755;28;20020;-61
2023/04/10 02:42:08;;;;;;;6.55;5.88;;;10.40;1.00;;;;;;5117235;28;20214;-61
2023/04/10 02:44:34;;;;;;;6.13;5.35;;;10.50;1.00;;;;;;5117480;28;20353;-60
2023/04/10 02:47:00;;;;;;;6.10;5.50;;;10.40;1.00;;;;;;5117459;28;20135;-60
2023/04/10 02:49:26;;;;;;;7.80;5.32;;;10.40;1.00;;;;;;5100475;28;20126;-61
2023/04/10 02:51:55;;;;;;;5.68;5.07;;;10.40;1.00;;;;;;5117852;28;20119;-61
2023/04/10 02:54:21;;;;;;;5.85;5.03;;;10.40;1.00;;;;;;5117252;28;20117;-61
2023/04/10 02:56:47;;;;;;;5.78;5.05;;;10.40;1.00;;;;;;5117342;28;20097;-61
2023/04/10 02:59:13;;;;;;;5.85;4.90;;;10.40;1.00;;;;;;5117168;28;20024;-61
2023/04/10 03:01:39;;;;;;;6.63;4.90;;;10.40;1.00;;;;;;5116881;28;20112;-61
2023/04/10 03:04:05;;;;;;;5.68;5.15;;;10.40;1.00;;;;;;5116988;28;20066;-60
2023/04/10 03:06:36;;;;;;;8.05;5.10;;;10.40;1.00;;;;;;5117135;28;20042;-61
2023/04/10 03:09:02;;;;;;;5.50;4.97;;;10.40;1.00;;;;;;5116913;28;20024;-61
2023/04/10 03:11:28;;;;;;;5.78;5.18;;;10.40;1.00;;;;;;5117503;28;20028;-61
2023/04/10 03:13:54;;;;;;;5.70;5.10;;;10.50;1.00;;;;;;5116959;28;20064;-62
2023/04/10 03:16:20;;;;;;;5.57;4.97;;;10.50;1.00;;;;;;5116734;28;20065;-61
2023/04/10 03:18:46;;;;;;;5.43;4.70;;;10.60;1.00;;;;;;5099962;28;20028;-60
2023/04/10 03:21:12;;;;;;;5.65;4.80;;;10.70;1.00;;;;;;5083173;28;20091;-62
2023/04/10 03:23:38;;;;;;;6.70;5.40;;;10.70;1.00;;;;;;5116866;28;20124;-61
2023/04/10 03:26:04;;;;;;;7.40;5.95;;;10.70;1.00;;;;;;5117582;28;20466;-59
2023/04/10 03:28:35;;;;;;;5.63;4.85;;;10.70;1.00;;;;;;5100542;28;20036;-60
2023/04/10 03:31:02;;;;;;;5.85;5.00;;;10.70;1.00;;;;;;5116671;28;20304;-60
2023/04/10 03:33:31;;;;;;;6.40;5.15;;;10.70;1.00;;;;;;5117830;28;20431;-58
2023/04/10 03:35:59;;;;;;;45.85;33.63;;;10.80;1.00;;;;;;5116012;28;20127;-60
2023/04/10 03:38:25;;;;;;;5.45;4.88;;;10.70;1.00;;;;;;5099516;28;20297;-60
2023/04/10 03:40:52;;;;;;;5.63;5.03;;;10.70;1.00;;;;;;5117431;28;20390;-61
2023/04/10 03:43:20;;;;;;;6.00;5.28;;;10.70;1.00;;;;;;5117467;28;20055;-61
2023/04/10 03:45:47;;;;;;;5.45;4.95;;;10.60;1.00;;;;;;5099563;28;20342;-61
2023/04/10 03:48:13;;;;;;;5.50;4.97;;;10.70;1.00;;;;;;5116444;28;20031;-60
2023/04/10 03:50:43;;;;;;;5.50;4.88;;;10.60;1.00;;;;;;5120657;28;20122;-61
2023/04/10 03:53:09;;;;;;;6.68;4.72;;;10.50;1.00;;;;;;5121356;28;20077;-61
2023/04/10 03:55:37;;;;;;;6.13;5.15;;;10.50;1.00;;;;;;5120604;28;20053;-61
2023/04/10 03:58:04;;;;;;;5.82;5.22;;;10.40;1.00;;;;;;5087222;28;20101;-61
2023/04/10 04:00:30;;;;;;;5.60;5.10;;;10.40;1.00;;;;;;5120501;28;20143;-61
2023/04/10 04:03:08;;;;;;;5.88;5.20;;;10.30;1.00;;;;;;5105025;28;20437;-61
2023/04/10 04:05:55;;;;;;;7.22;5.43;;;10.30;1.00;;;;;;5106453;28;20032;-61
2023/04/10 04:08:35;;;;;;;5.70;5.20;;;10.20;1.00;;;;;;5120576;28;20031;-60
2023/04/10 04:11:19;;;;;;;5.88;5.25;;;10.20;1.00;;;;;;5106552;28;20058;-60
2023/04/10 04:14:01;;;;;;;7.78;6.10;;;10.20;1.00;;;;;;5120436;28;20031;-61
2023/04/10 04:16:46;;;;;;;7.05;5.45;;;10.10;1.00;;;;;;5121150;28;20078;-62
2023/04/10 04:19:44;;;;;;;7.45;5.97;;;10.10;1.00;;;;;;5121276;28;20028;-61
2023/04/10 04:22:22;;;;;;;8.45;6.10;;;10.10;1.00;;;;;;5104739;28;20031;-61
2023/04/10 04:25:00;;;;;;;8.82;6.07;;;10.10;1.00;;;;;;5120675;28;20043;-61
2023/04/10 04:27:46;;;;;;;7.15;5.75;;;10.10;1.00;;;;;;5119882;28;20036;-61
2023/04/10 04:30:32;;;;;;;8.13;5.82;;;10.10;1.00;;;;;;5121260;28;20031;-61
2023/04/10 04:33:08;;;;;;;6.53;5.88;;;10.20;1.00;;;;;;5120001;28;20308;-61
2023/04/10 04:35:48;;;;;;;8.15;6.25;;;10.20;1.00;;;;;;5104685;28;20032;-61
2023/04/10 04:38:19;;;;;;;8.18;6.38;;;10.20;1.00;;;;;;5119910;28;20035;-61
2023/04/10 04:41:04;;;;;;;8.32;6.07;;;10.30;1.00;;;;;;5120832;28;20041;-61
2023/04/10 04:43:54;;;;;;;6.47;5.30;;;10.20;1.00;;;;;;5082346;28;20039;-61
2023/04/10 04:46:42;;;;;;;6.43;5.22;;;10.20;1.00;;;;;;5119579;28;20046;-60
2023/04/10 04:49:26;;;;;;;6.30;5.65;;;10.10;1.00;;;;;;5120950;28;20115;-61
2023/04/10 04:52:10;;;;;;;6.75;6.05;;;10.30;1.00;;;;;;5120506;28;20089;-61
2023/04/10 04:54:56;;;;;;;6.60;5.88;;;10.30;1.00;;;;;;5119606;28;20035;-61
2023/04/10 04:57:36;;;;;;;6.88;5.50;;;10.30;1.00;;;;;;5119339;28;20081;-61
2023/04/10 05:00:18;;;;;;;6.60;5.57;;;10.20;1.00;;;;;;5118385;28;20111;-61
2023/04/10 05:03:02;;;;;;;6.55;5.75;;;10.20;1.00;;;;;;5120428;28;20366;-61
2023/04/10 05:05:40;;;;;;;6.38;5.60;;;10.20;1.00;;;;;;5120554;28;20039;-60
2023/04/10 05:08:26;;;;;;;7.72;5.60;;;10.10;1.00;;;;;;5119370;28;20290;-60
2023/04/10 05:11:14;;;;;;;6.95;5.70;;;10.10;1.00;;;;;;5119813;28;20047;-61
2023/04/10 05:13:59;;;;;;;6.20;5.50;;;10.10;1.00;;;;;;5119409;28;20131;-61
2023/04/10 05:16:34;;;;;;;5.97;5.38;;;10.20;1.00;;;;;;5119228;28;20031;-61
2023/04/10 05:19:19;;;;;;;6.28;5.55;;;10.20;1.00;;;;;;5119636;28;20404;-61
2023/04/10 05:22:23;;;;;;;6.10;5.50;;;10.20;1.00;;;;;;5037581;28;20315;-61
2023/04/10 05:24:54;;;;;;;7.13;5.90;;;10.20;1.00;;;;;;5037591;28;20113;-61
2023/04/10 05:27:39;;;;;;;6.47;5.38;;;10.20;1.00;;;;;;5067009;28;20040;-61
2023/04/10 05:30:34;;;;;;;8.80;5.90;;;10.30;1.00;;;;;;5047499;28;20454;-61
2023/04/10 05:33:11;;;;;;;7.85;5.70;;;10.40;1.00;;;;;;5118430;28;20363;-62
2023/04/10 05:36:03;;;;;;;7.78;5.90;;;10.30;1.00;;;;;;5088046;28;20028;-61
2023/04/10 05:38:55;;;;;;;8.50;5.75;;;10.30;1.00;;;;;;5115236;28;20075;-61
2023/04/10 05:41:44;;;;;;;6.47;5.88;;;10.60;1.00;;;;;;5108062;28;20405;-61
2023/04/10 05:44:39;;;;;;;6.82;6.13;;;10.50;1.00;;;;;;5064826;28;20033;-61
2023/04/10 05:47:25;;;;;;;6.07;5.18;;;10.40;1.00;;;;;;5104280;28;20038;-61
2023/04/10 05:49:56;;;;;;;8.13;5.63;;;10.50;1.00;;;;;;5118534;28;20086;-61
2023/04/10 05:52:47;;;;;;;6.05;5.45;;;10.40;1.00;;;;;;5118268;28;20400;-61
2023/04/10 05:55:31;;;;;;;5.60;5.05;;;10.60;1.00;;;;;;5119335;28;20047;-61
2023/04/10 05:58:33;;;;;;;6.43;5.68;;;10.50;1.00;;;;;;5091287;28;20370;-61
2023/04/10 06:01:16;;;;;;;6.68;5.40;;;10.50;1.00;;;;;;5119008;28;20396;-61
2023/04/10 06:04:01;;;;;;;6.88;5.78;;;10.50;1.00;;;;;;5118098;28;20048;-61
2023/04/10 06:06:28;;;;;;;6.10;5.22;;;10.60;1.00;;;;;;5118148;28;20032;-61
2023/04/10 06:08:55;;;;;;;7.68;5.10;;;10.70;1.00;;;;;;5117881;28;20062;-61
2023/04/10 06:11:21;;;;;;;6.10;5.50;;;10.90;1.00;;;;;;5118025;28;20070;-61
2023/04/10 06:13:51;;;;;;;5.88;5.28;;;10.80;1.00;;;;;;5117894;28;20042;-61
2023/04/10 06:16:19;;;;;;;5.55;4.90;;;10.90;1.00;;;;;;5117890;28;20028;-61
2023/04/10 06:18:46;;;;;;;7.03;5.47;;;10.90;1.00;;;;;;5117859;28;20031;-61
2023/04/10 06:21:12;;;;;;;6.28;5.60;;;10.90;1.00;;;;;;5100985;28;20401;-61
2023/04/10 06:23:38;;;;;;;6.20;5.60;;;10.90;1.00;;;;;;5117777;28;20027;-62
2023/04/10 06:26:04;;;;;;;6.90;5.63;;;10.90;1.00;;;;;;5118814;28;20113;-61
2023/04/10 06:28:30;;;;;;;6.00;5.40;;;10.90;1.00;;;;;;5117522;28;20063;-61
2023/04/10 06:31:02;;;;;;;7.47;5.75;;;10.70;1.00;;;;;;5117626;28;20127;-61
2023/04/10 06:33:31;;;;;;;6.25;5.15;;;10.70;1.00;;;;;;5117505;28;20115;-61
2023/04/10 06:35:57;;;;;;;6.50;5.82;;;10.70;1.00;;;;;;5117834;28;20038;-61
2023/04/10 06:38:24;;;;;;;6.15;5.55;;;10.80;1.00;;;;;;5117422;28;20044;-61
2023/04/10 06:40:50;;;;;;;6.38;5.55;;;10.90;1.00;;;;;;5117447;28;20113;-61
2023/04/10 06:43:16;;;;;;;6.65;5.50;;;10.80;1.00;;;;;;5118026;28;20149;-61
2023/04/10 06:45:42;;;;;;;5.50;5.00;;;10.90;1.00;;;;;;5117336;28;20042;-61
2023/04/10 06:48:08;;;;;;;5.95;5.25;;;10.80;1.00;;;;;;5118107;28;20032;-61
2023/04/10 06:50:34;;;;;;;6.43;5.60;;;10.90;1.00;;;;;;5100646;28;20349;-61
2023/04/10 06:52:59;;;;;;;6.45;5.72;;;10.90;1.00;;;;;;5117850;28;20042;-62
2023/04/10 06:55:26;;;;;;;6.05;5.45;;;10.90;1.00;;;;;;5117906;28;20042;-61
2023/04/10 06:57:52;;;;;;;6.53;5.90;;;10.70;1.00;;;;;;5118260;28;20323;-61
2023/04/10 07:00:18;;;;;;;6.90;5.53;;;10.70;1.00;;;;;;5118162;28;20392;-61
2023/04/10 07:02:45;;;;;;;6.63;5.80;;;10.50;1.00;;;;;;5117784;28;20023;-62
2023/04/10 07:05:11;;;;;;;6.25;5.65;;;10.60;1.00;;;;;;5117028;28;20350;-61
2023/04/10 07:07:36;;;;;;;6.28;5.65;;;10.80;1.00;;;;;;5118084;28;20046;-61
2023/04/10 07:10:02;;;;;;;5.70;5.20;;;10.90;1.00;;;;;;5117551;28;20035;-59
2023/04/10 07:12:28;;;;;;;7.07;5.43;;;11.00;1.00;;;;;;5117588;28;20023;-60
2023/04/10 07:14:54;;;;;;;5.90;5.30;;;11.10;1.00;;;;;;5116865;28;20091;-62
2023/04/10 07:17:21;;;;;;;6.30;5.70;;;11.30;1.00;;;;;;5116943;28;20300;-62
2023/04/10 07:19:46;;;;;;;5.43;4.93;;;11.40;1.00;;;;;;5117724;28;20024;-62
2023/04/10 07:22:15;;;;;;;6.00;5.40;;;11.40;1.00;;;;;;5116971;28;20054;-61
2023/04/10 07:24:41;;;;;;;6.57;5.65;;;11.50;1.00;;;;;;5116985;28;20032;-61
2023/04/10 07:27:07;;;;;;;5.88;5.28;;;11.40;1.00;;;;;;5117420;28;20401;-61
2023/04/10 07:29:33;;;;;;;6.28;5.03;;;11.10;1.00;;;;;;5117420;28;20034;-61
2023/04/10 07:31:59;;;;;;;6.85;5.95;;;10.90;1.00;;;;;;5116547;28;20031;-61
2023/04/10 07:34:25;;;;;;;6.43;4.85;;;11.00;1.00;;;;;;5117367;28;20124;-61
2023/04/10 07:36:51;;;;;;;5.75;5.13;;;11.30;1.00;;;;;;5117952;28;20081;-61
2023/04/10 07:39:17;;;;;;;5.53;4.80;;;11.20;1.00;;;;;;5116738;28;20377;-61
2023/04/10 07:41:43;;;;;;;5.00;4.50;;;11.40;1.00;;;;;;5117201;28;20134;-62
2023/04/10 07:44:09;;;;;;;6.38;4.72;;;11.50;1.00;;;;;;5117348;28;20028;-60
2023/04/10 07:46:35;;;;;;;6.28;5.20;;;11.40;1.00;;;;;;5117914;28;20031;-61
2023/04/10 07:49:01;;;;;;;5.80;4.93;;;11.50;1.00;;;;;;5117365;28;20089;-61
2023/04/10 07:51:27;;;;;;;6.13;4.55;;;11.50;1.00;;;;;;5117212;28;20019;-61
2023/04/10 07:53:54;;;;;;;6.45;4.32;;;11.50;1.00;;;;;;5116257;28;20397;-61
2023/04/10 07:56:21;;;;;;;5.75;4.88;;;11.50;1.00;;;;;;5117197;28;20308;-61
2023/04/10 07:58:47;;;;;;;5.15;4.65;;;11.60;1.00;;;;;;5117129;28;20027;-61
2023/04/10 08:01:14;;;;;;;5.03;4.53;;;11.70;1.00;;;;;;5117120;28;20335;-61
2023/04/10 08:03:45;;;;;;;6.32;4.85;;;11.60;1.00;;;;;;5099306;28;20383;-61
2023/04/10 08:06:11;;;;;;;5.43;4.57;;;11.70;1.00;;;;;;5117701;28;20062;-61
2023/04/10 08:08:38;;;;;;;4.88;4.32;;;12.00;1.00;;;;;;5117037;28;20068;-61
2023/04/10 08:11:22;;;;;;;6.03;4.90;;;12.10;1.00;;;;;;5099344;28;20036;-61
2023/04/10 08:13:48;;;;;;;5.13;4.63;;;12.20;1.00;;;;;;5116901;28;20024;-61
2023/04/10 08:16:14;;;;;;;5.00;4.25;;;12.10;1.00;;;;;;5116974;28;20293;-61
2023/04/10 08:18:40;;;;;;;5.47;4.40;;;12.10;1.00;;;;;;5116694;28;20039;-61
2023/04/10 08:21:06;;;;;;;4.47;4.07;;;12.30;1.00;;;;;;5116780;28;20404;-61
2023/04/10 08:23:31;;;;;;;4.82;4.25;;;12.40;1.00;;;;;;5115971;28;20450;-61
2023/04/10 08:25:57;;;;;;;7.18;4.28;;;12.60;1.00;;;;;;5115859;28;20040;-61
2023/04/10 08:28:23;;;;;;;4.90;4.10;;;12.50;1.00;;;;;;5116534;28;20032;-61
2023/04/10 08:30:49;;;;;;;5.10;4.50;;;12.40;1.00;;;;;;5116987;28;20036;-62
2023/04/10 08:33:15;;;;;;;4.20;3.80;;;12.50;1.00;;;;;;5116673;28;20426;-61
2023/04/10 08:35:40;;;;;;;4.40;4.00;;;12.60;1.00;;;;;;5119013;28;20023;-61
2023/04/10 08:38:06;;;;;;;5.05;4.45;;;12.70;1.00;;;;;;5120657;28;20032;-61
2023/04/10 08:40:36;;;;;;;5.20;4.03;;;12.70;1.00;;;;;;5120727;28;20104;-61
2023/04/10 08:43:02;;;;;;;4.78;4.38;;;12.70;1.00;;;;;;5120545;28;20052;-61
2023/04/10 08:45:28;;;;;;;4.85;4.43;;;12.70;1.00;;;;;;5120530;28;20373;-62
2023/04/10 08:47:56;;;;;;;4.25;3.85;;;12.80;1.00;;;;;;5120460;28;20296;-60
2023/04/10 08:50:22;;;;;;;7.03;4.53;;;12.80;1.00;;;;;;5120381;28;20026;-61
2023/04/10 08:52:51;;;;;;;5.30;4.25;;;12.80;1.00;;;;;;5120349;28;20032;-60
2023/04/10 08:55:18;;;;;;;6.53;4.20;;;12.70;1.00;;;;;;5120384;28;20092;-62
2023/04/10 08:57:45;;;;;;;4.43;4.03;;;12.70;1.00;;;;;;5120330;28;20384;-62
2023/04/10 09:00:11;;;;;;;5.63;4.32;;;12.70;1.00;;;;;;5119666;28;20024;-62
2023/04/10 09:02:39;;;;;;;4.47;4.07;;;12.60;1.00;;;;;;5120160;28;20465;-61
2023/04/10 09:05:09;;;;;;;5.38;3.80;;;12.70;1.00;;;;;;5119508;28;20105;-62
2023/04/10 09:07:35;;;;;;;5.00;3.72;;;13.00;1.00;;;;;;5120214;28;20028;-62
2023/04/10 09:10:01;;;;;;;3.90;3.60;;;13.20;1.00;;;;;;5120173;28;20027;-62
2023/04/10 09:12:26;;;;;;;4.47;3.83;;;13.30;1.00;;;;;;5119185;28;20031;-62
2023/04/10 09:14:52;;;;;;;4.10;3.70;;;13.20;1.00;;;;;;5119287;28;20410;-62
2023/04/10 09:17:24;;;;;;;4.80;3.97;;;13.30;1.00;;;;;;5120497;28;20040;-62
2023/04/10 09:19:53;;;;;;;4.50;3.43;;;13.40;1.00;;;;;;5119182;28;20114;-61
2023/04/10 09:22:29;;;;;;;4.38;3.70;;;13.50;1.00;;;;;;5119048;28;20278;-62
2023/04/10 09:24:55;;;;;;;4.22;3.83;;;13.60;1.00;;;;;;5120392;28;20092;-62
2023/04/10 09:27:40;;;;;;;4.10;3.65;;;13.60;1.00;;;;;;5118895;28;20394;-62
2023/04/10 09:30:07;;;;;;;3.90;3.50;;;13.90;1.00;;;;;;5118858;28;20078;-62
2023/04/10 09:32:39;;;;;;;4.88;3.78;;;14.00;1.00;;;;;;5119551;28;20024;-62
2023/04/10 09:35:06;;;;;;;6.07;3.70;;;13.80;1.00;;;;;;5119532;28;20094;-62
2023/04/10 09:37:32;;;;;;;4.38;3.92;;;14.00;1.00;;;;;;5119471;28;20024;-62
2023/04/10 09:39:58;;;;;;;4.13;3.72;;;14.30;1.00;;;;;;5119271;28;20118;-62
2023/04/10 09:42:38;;;;;;;4.82;4.03;;;14.40;1.00;;;;;;5118511;28;20297;-62
2023/04/10 09:45:04;;;;;;;4.47;4.07;;;14.10;1.00;;;;;;5118971;28;20039;-62
2023/04/10 09:47:31;;;;;;;4.13;3.70;;;13.90;1.00;;;;;;5118090;28;20296;-62
2023/04/10 09:49:59;;;;;;;4.60;4.20;;;14.00;1.00;;;;;;5119546;28;20032;-62
2023/04/10 09:52:27;;;;;;;4.15;3.75;;;14.20;1.00;;;;;;5119666;28;20424;-61
2023/04/10 09:54:55;;;;;;;5.78;3.90;;;14.10;1.00;;;;;;5119139;28;20020;-59
2023/04/10 09:57:22;;;;;;;5.72;4.07;;;14.20;1.00;;;;;;5119083;28;20103;-61
2023/04/10 09:59:53;;;;;;;4.85;3.70;;;14.20;1.00;;;;;;5119059;28;20046;-60
2023/04/10 10:02:23;;;;;;;3.72;3.42;;;14.40;1.00;;;;;;5119054;28;20028;-61
2023/04/10 10:04:51;;;;;;;5.57;3.97;;;14.40;1.00;;;;;;5119233;28;20054;-61
2023/04/10 10:07:20;;;;;;;5.20;3.88;;;14.50;1.00;;;;;;5118944;28;20407;-61
2023/04/10 10:09:48;;;;;;;4.18;3.75;;;14.90;1.00;;;;;;5118164;28;20035;-60
2023/04/10 10:12:36;;;;;;;4.28;3.78;;;15.00;99.90;;;;;;5119268;28;20027;-60
2023/04/10 10:15:09;;;;;;;4.47;4.03;;;14.90;99.90;;;;;;5118693;28;20024;-61
2023/04/10 10:17:44;;;;;;;4.30;3.53;;;14.90;1.00;;;;;;5119114;28;20119;-62
2023/04/10 10:20:12;;;;;;;4.22;3.67;;;15.30;99.90;;;;;;5118220;28;20096;-62
2023/04/10 10:22:38;;;;;;;4.32;3.67;;;15.30;99.90;;;;;;5117843;28;20122;-61
2023/04/10 10:25:07;;;;;;;5.38;3.78;;;15.40;99.90;;;;;;5118587;28;20039;-61
2023/04/10 10:27:36;;;;;;;3.90;3.50;;;15.70;99.90;;;;;;5118401;28;20020;-61
2023/04/10 10:30:05;;;;;;;4.45;3.45;;;15.90;99.90;;;;;;5118390;28;20334;-61
2023/04/10 10:32:33;;;;;;;3.83;3.40;;;15.90;99.90;;;;;;5118295;28;20415;-62
2023/04/10 10:35:01;;;;;;;4.47;3.53;;;15.70;99.90;;;;;;5118416;27;20035;-62
2023/04/10 10:37:31;;;;;;;5.25;3.72;;;16.00;99.90;;;;;;5117654;28;20020;-62
2023/04/10 10:40:14;;;;;;;4.50;3.80;;;15.90;99.90;;;;;;5118632;28;20059;-62
2023/04/10 10:42:44;;;;;;;;;;;16.10;99.90;;;;;;5117776;28;20051;-62
2023/04/10 10:45:17;;;;;;;3.97;3.22;;;16.10;99.90;;;;;;5118246;28;20024;-63
2023/04/10 10:47:49;;;;;;;4.43;3.50;;;15.90;99.90;;;;;;5118174;28;20043;-63
2023/04/10 10:50:15;;;;;;;4.10;3.40;;;16.10;98.50;;;;;;5118183;28;20043;-61
2023/04/10 10:52:52;;;;;;;5.35;3.25;;;16.10;99.90;;;;;;5117314;28;20035;-61
2023/04/10 10:55:24;;;;;;;4.63;3.30;;;16.50;99.90;;;;;;5118104;28;20035;-62
2023/04/10 10:57:54;;;;;;;3.40;3.10;;;16.40;1.00;;;;;;5117696;28;20355;-62
2023/04/10 11:00:22;;;;;;;5.05;3.38;;;16.30;1.00;;;;;;5117614;28;20393;-61
2023/04/10 11:03:09;;;;;;;4.07;3.40;;;16.50;1.00;;;;;;5117892;28;20032;-59
2023/04/10 11:05:54;;;;;;;3.47;3.17;;;16.60;1.00;;;;;;5103847;28;20051;-62
2023/04/10 11:08:32;;;;;;;3.20;2.90;;;16.40;1.00;;;;;;5117795;28;20042;-62
2023/04/10 11:11:04;;;;;;;3.50;3.20;;;16.60;1.00;;;;;;5117929;28;20031;-61
2023/04/10 11:13:31;;;;;;;3.80;2.90;;;16.50;1.00;;;;;;5117656;28;20039;-61
2023/04/10 11:15:58;;;;;;;4.10;3.00;;;16.60;1.00;;;;;;5117727;28;20164;-59
2023/04/10 11:18:50;;;;;;;3.17;2.88;;;16.50;1.00;;;;;;5117659;28;20019;-58
2023/04/10 11:21:21;;;;;;;4.03;2.90;;;16.40;1.00;;;;;;5094248;28;20340;-60
2023/04/10 11:23:50;;;;;;;4.43;3.15;;;16.50;1.00;;;;;;5117617;28;20035;-61
2023/04/10 11:26:35;;;;;;;2.85;2.50;;;16.30;1.00;;;;;;5117482;28;20385;-62
2023/04/10 11:29:16;;;;;;;3.20;2.90;;;16.30;1.00;;;;;;5117520;28;20048;-61
2023/04/10 11:31:53;;;;;;;3.10;2.80;;;16.40;1.00;;;;;;5116533;28;20050;-60
2023/04/10 11:34:19;;;;;;;3.05;2.85;;;16.70;1.00;;;;;;5117455;28;20122;-60
2023/04/10 11:36:46;;;;;;;3.90;2.45;;;16.60;1.00;;;;;;5117964;28;20104;-62
2023/04/10 11:39:17;;;;;;;4.30;2.53;;;16.60;1.00;;;;;;5117332;28;20404;-62
2023/04/10 11:41:44;;;;;;;2.50;2.28;;;16.60;1.00;;;;;;5116379;28;20040;-59
2023/04/10 11:44:13;;;;;;;2.70;2.50;;;16.70;1.00;;;;;;5117258;28;20114;-62
2023/04/10 11:46:40;;;;;;;2.95;2.22;;;16.70;1.00;;;;;;5117298;28;20023;-61
2023/04/10 11:49:11;;;;;;;3.47;2.10;;;16.60;1.00;;;;;;5117132;28;20103;-58
2023/04/10 11:51:38;;;;;;;2.30;2.10;;;16.70;1.00;;;;;;5116459;28;20047;-60
2023/04/10 11:54:09;;;;;;;2.58;2.00;;;16.80;1.00;;;;;;5117172;28;20039;-61
2023/04/10 11:56:36;;;;;;;3.65;1.80;;;16.80;1.00;;;;;;5117532;28;20343;-62
2023/04/10 11:59:08;;;;;;;3.63;2.05;;;16.90;1.00;;;;;;5117141;28;20288;-62
2023/04/10 12:01:34;;;;;;;2.67;1.92;;;16.90;99.90;;;;;;5116273;28;20028;-59
2023/04/10 12:04:00;;;;;;;3.90;2.10;;;16.80;99.90;;;;;;5117088;28;20039;-61
2023/04/10 12:06:26;;;;;;;3.92;2.05;;;16.90;99.90;;;;;;5117083;28;20319;-59
2023/04/10 12:08:53;;;;;;;5.00;2.22;;;16.90;45.10;;;;;;5117157;28;20354;-60
2023/04/10 12:11:21;;;;;;;1.77;1.67;;;16.90;99.90;;;;;;5120572;28;20028;-62
2023/04/10 12:13:50;;;;;;;2.58;1.83;;;16.90;99.90;;;;;;5121002;28;20456;-61
2023/04/10 12:16:17;;;;;;;2.40;1.92;;;16.90;99.90;;;;;;5121037;28;20035;-61
2023/04/10 12:18:44;;;;;;;4.30;2.00;;;16.90;99.90;;;;;;5120909;28;20032;-61
2023/04/10 12:21:10;;;;;;;3.42;1.80;;;16.80;99.90;;;;;;5121008;28;20066;-62
2023/04/10 12:23:38;;;;;;;3.53;2.33;;;16.90;99.90;;;;;;5120224;28;20047;-63
2023/04/10 12:26:20;;;;;;;3.78;2.00;;;16.90;99.90;;;;;;5120985;28;20115;-62
2023/04/10 12:28:57;;;;;;;2.70;2.00;;;17.00;99.90;;;;;;5120979;28;20031;-63
2023/04/10 12:31:33;;;;;;;2.63;2.03;;;17.00;99.90;;;;;;5120082;28;20135;-63
2023/04/10 12:34:04;;;;;;;2.85;1.88;;;16.80;1.00;;;;;;5120791;28;20028;-61
2023/04/10 12:36:32;;;;;;;3.38;1.80;;;16.60;99.90;;;;;;5102939;28;20028;-62
2023/04/10 12:38:59;;;;;;;3.35;2.15;;;16.40;99.90;;;;;;5120672;28;20436;-62
2023/04/10 12:41:30;;;;;;;2.58;1.80;;;16.20;1.00;;;;;;5120404;28;20082;-61
2023/04/10 12:44:10;;;;;;;4.55;2.25;;;16.10;99.90;;;;;;5120647;27;20027;-59
2023/04/10 12:46:36;;;;;;;2.42;1.83;;;16.10;99.90;;;;;;5120578;27;20024;-62
2023/04/10 12:49:10;;;;;;;2.20;2.00;;;16.10;1.00;;;;;;5119691;28;20277;-61
2023/04/10 12:51:51;;;;;;;2.50;2.15;;;16.10;1.00;;;;;;5120472;28;20297;-63
2023/04/10 12:54:31;;;;;;;2.50;2.30;;;16.00;1.00;;;;;;5120338;28;20028;-63
2023/04/10 12:56:57;;;;;;;2.35;2.15;;;15.80;1.00;;;;;;5120423;28;20038;-62
2023/04/10 12:59:25;;;;;;;5.25;2.10;;;15.50;1.00;;;;;;5120471;28;20416;-62
2023/04/10 13:01:51;;;;;;;2.53;2.33;;;15.20;1.00;;;;;;5120285;28;20031;-60
2023/04/10 13:04:17;;;;;;;4.53;2.67;;;15.10;1.00;;;;;;5102483;28;20028;-60
2023/04/10 13:06:44;;;;;;;4.65;2.83;;;15.00;1.00;;;;;;5120206;28;20034;-62
2023/04/10 13:09:12;;;;;;;3.08;2.70;;;15.00;1.00;;;;;;5120118;28;20303;-61
2023/04/10 13:11:38;;;;;;;3.58;2.58;;;14.90;1.00;;;;;;5120079;28;20035;-61
2023/04/10 13:14:03;;;;;;;2.97;2.70;;;15.00;1.00;;;;;;5119930;28;20023;-62